Time;durP1;ratioP1;P1;durP2;ratioP2;P2;SDS_P1;SDS_P2;PMS_P1;PMS_P2;Temp;Humidity;BMP_temperature;BMP_pressure;BME280_temperature;BME280_humidity;BME280_pressure;Samples;Min_cycle;Max_cycle;Signal;HPM_P1;HPM_P2
2023/03/25 00:01:01;;;;;;;5.72;2.85;;;;;;;16.43;49.27;100870.19;6175798;23;20021;-79
2023/03/25 00:03:33;;;;;;;5.22;2.95;;;;;;;16.33;49.37;100858.78;6175411;23;20020;-82
2023/03/25 00:06:02;;;;;;;7.13;3.35;;;;;;;16.10;50.01;100821.13;6183789;23;20168;-81
2023/03/25 00:08:28;;;;;;;4.88;3.35;;;;;;;16.32;50.11;100861.66;6189021;23;20024;-83
2023/03/25 00:10:58;;;;;;;2.95;2.70;;;;;;;15.81;50.24;100778.78;6168696;23;20060;-82
2023/03/25 00:13:30;;;;;;;3.28;2.97;;;;;;;15.30;50.55;100703.94;6180737;23;20032;-81
2023/03/25 00:15:58;;;;;;;4.28;3.47;;;;;;;16.20;50.41;100853.09;6170169;23;20028;-82
2023/03/25 00:18:28;;;;;;;6.65;3.35;;;;;;;16.23;49.89;100858.94;6174733;23;20559;-80
2023/03/25 00:21:03;;;;;;;4.05;2.75;;;;;;;15.93;50.22;100814.94;6129724;23;20120;-82
2023/03/25 00:23:38;;;;;;;3.87;2.87;;;;;;;15.37;50.63;100723.66;6161783;23;20024;-82
2023/03/25 00:26:11;;;;;;;3.20;2.88;;;;;;;16.09;51.07;100850.75;6174579;23;20270;-82
2023/03/25 00:28:56;;;;;;;3.17;2.75;;;;;;;16.06;50.62;100854.59;6170437;23;20025;-82
2023/03/25 00:31:39;;;;;;;2.85;2.50;;;;;;;16.07;50.61;100847.38;6158309;23;20467;-82
2023/03/25 00:34:13;;;;;;;5.38;3.00;;;;;;;15.87;50.98;100820.94;6186467;23;20444;-81
2023/03/25 00:37:08;;;;;;;5.68;3.13;;;;;;;16.02;51.08;100835.34;6172026;23;20289;-80
2023/03/25 00:40:05;;;;;;;6.40;3.10;;;;;;;15.97;51.48;100836.84;6163670;23;20013;-79
2023/03/25 00:42:33;;;;;;;5.25;3.55;;;;;;;15.73;51.66;100814.41;6163020;23;20401;-80
2023/03/25 00:45:02;;;;;;;4.00;2.95;;;;;;;15.54;51.98;100783.41;6161920;23;20134;-80
2023/03/25 00:47:28;;;;;;;2.85;2.65;;;;;;;15.74;51.92;100817.91;6188962;23;20016;-80
2023/03/25 00:49:55;;;;;;;3.70;2.90;;;;;;;15.80;51.54;100804.72;6173261;23;20020;-80
2023/03/25 00:52:21;;;;;;;4.78;3.33;;;;;;;15.48;51.63;100749.25;6187026;23;20024;-83
2023/03/25 00:54:48;;;;;;;5.35;3.30;;;;;;;15.77;51.97;100809.56;6189731;23;20326;-83
2023/03/25 00:57:17;;;;;;;6.40;3.30;;;;;;;15.65;51.87;100805.47;6173942;23;20026;-82
2023/03/25 00:59:53;;;;;;;5.95;3.17;;;;;;;15.54;52.22;100791.41;6175770;23;20031;-81
2023/03/25 01:02:42;;;;;;;4.85;3.20;;;;;;;15.58;52.39;100814.19;6174478;23;20392;-79
2023/03/25 01:05:13;;;;;;;5.63;3.17;;;;;;;15.67;52.02;100830.25;6188867;23;20127;-80
2023/03/25 01:07:40;;;;;;;6.15;3.00;;;;;;;15.38;52.67;100778.84;6178162;23;20631;-81
2023/03/25 01:10:08;;;;;;;4.78;3.50;;;;;;;15.71;51.98;100820.94;6173175;23;20091;-82
2023/03/25 01:12:35;;;;;;;4.80;3.65;;;;;;;15.62;51.85;100784.41;6185351;23;20596;-82
2023/03/25 01:15:02;;;;;;;6.40;3.80;;;;;;;15.64;52.60;100793.13;6152396;23;20100;-81
2023/03/25 01:17:28;;;;;;;6.78;3.42;;;;;;;14.94;53.02;100700.66;6184805;23;20017;-82
2023/03/25 01:19:55;;;;;;;3.75;3.17;;;;;;;15.44;52.92;100782.72;6183385;23;20336;-80
2023/03/25 01:22:22;;;;;;;5.85;3.85;;;;;;;15.50;53.37;100792.75;6179441;23;20063;-82
2023/03/25 01:24:51;;;;;;;8.80;3.95;;;;;;;15.48;53.21;100804.59;6178894;23;20310;-80
2023/03/25 01:27:18;;;;;;;3.90;3.60;;;;;;;15.15;53.48;100754.53;6178275;23;20262;-81
2023/03/25 01:29:45;;;;;;;9.63;3.75;;;;;;;14.75;53.58;100697.25;6157966;23;20070;-80
2023/03/25 01:32:15;;;;;;;7.28;3.30;;;;;;;14.95;53.28;100729.06;6156804;23;20447;-80
2023/03/25 01:34:50;;;;;;;3.95;3.22;;;;;;;14.27;53.40;100623.91;6162975;23;20099;-82
2023/03/25 01:37:24;;;;;;;5.85;3.50;;;;;;;15.24;54.21;100778.63;6187843;23;20456;-81
2023/03/25 01:40:04;;;;;;;6.65;3.63;;;;;;;15.20;54.10;100763.94;6135090;23;20344;-83
2023/03/25 01:42:46;;;;;;;4.22;3.35;;;;;;;14.90;54.03;100710.00;6166897;23;20056;-81
2023/03/25 01:45:32;;;;;;;6.35;3.78;;;;;;;15.34;54.01;100757.91;6158245;23;20048;-82
2023/03/25 01:48:09;;;;;;;7.18;3.92;;;;;;;15.10;54.41;100737.31;6171439;23;20452;-82
2023/03/25 01:50:47;;;;;;;5.32;3.85;;;;;;;15.23;54.12;100758.25;6164234;23;20293;-84
2023/03/25 01:53:17;;;;;;;5.72;4.00;;;;;;;15.28;54.54;100758.59;6147281;23;20465;-81
2023/03/25 01:55:53;;;;;;;7.03;4.10;;;;;;;15.16;54.45;100745.50;6169881;23;20483;-80
2023/03/25 01:58:22;;;;;;;5.43;3.63;;;;;;;15.12;54.76;100744.19;6177848;23;20021;-83
2023/03/25 02:01:00;;;;;;;4.05;3.30;;;;;;;15.21;54.43;100744.19;6158037;23;20163;-82
2023/03/25 02:03:30;;;;;;;5.30;4.22;;;;;;;15.17;54.60;100739.19;6155975;23;20025;-83
2023/03/25 02:06:02;;;;;;;4.43;3.75;;;;;;;14.67;54.60;100645.63;6185154;23;20036;-81
2023/03/25 02:08:37;;;;;;;11.05;4.25;;;;;;;15.04;55.24;100695.19;6186082;23;20201;-82
2023/03/25 02:11:06;;;;;;;5.50;3.60;;;;;;;14.57;55.30;100629.75;6175867;23;20513;-82
2023/03/25 02:13:34;;;;;;;6.85;3.45;;;;;;;15.17;55.40;100725.81;6160247;23;20364;-83
2023/03/25 02:16:42;;;;;;;7.10;4.47;;;;;;;15.12;55.57;100722.78;6169760;23;20074;-81
2023/03/25 02:19:50;;;;;;;6.95;4.25;;;;;;;15.05;56.02;100729.78;6149836;23;20028;-82
2023/03/25 02:22:27;;;;;;;5.47;4.15;;;;;;;14.65;55.92;100675.19;6157838;23;20083;-83
2023/03/25 02:25:18;;;;;;;5.82;3.83;;;;;;;14.81;55.58;100678.94;6186788;23;20083;-83
2023/03/25 02:28:24;;;;;;;7.68;3.58;;;;;;;15.04;55.35;100730.78;6158423;23;20279;-82
2023/03/25 02:31:24;;;;;;;6.95;4.20;;;;;;;14.50;55.99;100644.72;6153079;23;20044;-82
2023/03/25 02:34:17;;;;;;;6.47;4.25;;;;;;;14.89;56.66;100714.53;6146840;23;20020;-82
2023/03/25 02:37:45;;;;;;;4.68;3.88;;;;;;;14.83;56.71;100719.66;6165202;23;20348;-82
2023/03/25 02:40:23;;;;;;;8.48;4.03;;;;;;;14.82;56.71;100707.31;6146725;23;20025;-80
2023/03/25 02:42:58;;;;;;;6.53;4.22;;;;;;;14.95;56.43;100718.38;6144300;23;20025;-82
2023/03/25 02:45:40;;;;;;;7.78;4.00;;;;;;;14.86;56.20;100682.78;6148661;23;20021;-81
2023/03/25 02:48:25;;;;;;;4.78;3.88;;;;;;;14.93;56.98;100709.69;6150447;23;20251;-82
2023/03/25 02:51:00;;;;;;;4.45;3.88;;;;;;;14.75;57.33;100681.22;6144270;23;20029;-83
2023/03/25 02:53:37;;;;;;;5.93;3.95;;;;;;;14.85;57.50;100697.13;6141197;23;20023;-83
2023/03/25 02:56:15;;;;;;;5.53;3.97;;;;;;;14.84;57.52;100694.63;6147488;23;20070;-82
2023/03/25 02:58:55;;;;;;;10.63;3.97;;;;;;;14.20;57.39;100587.31;6151474;23;20483;-82
2023/03/25 03:01:25;;;;;;;6.15;4.60;;;;;;;14.85;57.19;100693.63;6169738;23;20441;-81
2023/03/25 03:04:03;;;;;;;8.43;4.80;;;;;;;14.77;57.50;100683.75;6178091;23;20048;-81
2023/03/25 03:06:33;;;;;;;4.75;3.88;;;;;;;14.75;56.98;100678.53;6185087;23;20021;-82
2023/03/25 03:09:12;;;;;;;6.82;3.97;;;;;;;14.81;57.81;100692.28;6185079;23;20478;-82
2023/03/25 03:11:58;;;;;;;4.47;4.05;;;;;;;14.63;57.67;100673.66;6175411;23;20099;-81
2023/03/25 03:15:05;;;;;;;5.28;3.95;;;;;;;13.56;57.78;100491.63;6175696;23;20017;-80
2023/03/25 03:17:49;;;;;;;5.05;4.00;;;;;;;14.67;58.38;100683.88;6161557;23;20383;-80
2023/03/25 03:20:43;;;;;;;7.22;4.25;;;;;;;14.65;58.77;100693.88;6176113;23;20476;-82
2023/03/25 03:23:19;;;;;;;;;;;;;;;14.61;58.93;100695.22;6174986;23;20021;-81
2023/03/25 03:25:52;;;;;;;5.80;4.07;;;;;;;14.62;58.23;100696.88;6179186;23;20182;-81
2023/03/25 03:28:27;;;;;;;7.30;4.20;;;;;;;14.54;58.04;100678.16;6189017;23;20403;-80
2023/03/25 03:30:57;;;;;;;;;;;;;;;14.58;59.12;100700.03;6187724;23;20024;-79
2023/03/25 03:33:39;;;;;;;6.68;3.90;;;;;;;14.30;58.16;100642.28;6180268;23;19922;-80
2023/03/25 03:36:12;;;;;;;5.50;3.53;;;;;;;14.65;58.37;100701.06;6171788;23;20028;-83
2023/03/25 03:39:20;;;;;;;5.90;4.00;;;;;;;14.33;58.64;100657.97;6166745;23;20438;-80
2023/03/25 03:42:00;;;;;;;7.40;4.05;;;;;;;14.67;58.37;100713.25;6188741;23;20453;-83
2023/03/25 03:44:34;;;;;;;5.82;3.83;;;;;;;14.71;58.51;100717.31;6168551;23;20087;-80
2023/03/25 03:47:09;;;;;;;5.90;3.55;;;;;;;14.85;57.75;100715.84;6185010;23;20553;-82
2023/03/25 03:50:09;;;;;;;7.45;3.80;;;;;;;14.79;57.56;100703.13;6168869;23;20311;-81
2023/03/25 03:52:49;;;;;;;4.97;3.50;;;;;;;15.00;57.36;100716.06;6183024;23;20100;-82
2023/03/25 03:55:31;;;;;;;6.93;3.42;;;;;;;15.05;57.36;100716.41;6185783;23;20274;-81
2023/03/25 03:58:08;;;;;;;3.97;3.50;;;;;;;14.93;57.40;100685.66;6179671;23;20052;-82
2023/03/25 04:00:52;;;;;;;6.10;3.30;;;;;;;14.96;57.08;100688.81;6184328;23;20032;-82
2023/03/25 04:03:23;;;;;;;12.57;3.60;;;;;;;14.83;57.39;100664.41;6164185;23;20025;-81
2023/03/25 04:06:06;;;;;;;6.03;2.90;;;;;;;14.73;57.31;100643.16;6177776;23;20608;-81
2023/03/25 04:08:58;;;;;;;4.47;3.80;;;;;;;14.90;57.75;100675.25;6184451;23;20020;-80
2023/03/25 04:11:34;;;;;;;4.78;3.45;;;;;;;15.33;57.32;100741.03;6194254;23;20020;-82
2023/03/25 04:14:04;;;;;;;6.68;3.50;;;;;;;14.94;57.05;100684.63;6183744;23;20021;-80
2023/03/25 04:16:31;;;;;;;4.75;3.28;;;;;;;15.34;57.81;100763.28;6189226;23;20021;-81
2023/03/25 04:19:05;;;;;;;7.10;3.42;;;;;;;15.01;57.31;100700.88;6187468;23;20016;-81
2023/03/25 04:21:32;;;;;;;4.63;3.15;;;;;;;15.29;57.38;100754.91;6190386;23;20094;-82
2023/03/25 04:24:00;;;;;;;6.97;3.20;;;;;;;15.24;57.87;100749.22;6187815;23;20194;-82
2023/03/25 04:26:46;;;;;;;5.60;3.33;;;;;;;15.31;58.10;100774.31;6188810;23;20238;-81
2023/03/25 04:29:13;;;;;;;4.30;3.15;;;;;;;15.23;58.25;100747.53;6176503;23;20325;-80
2023/03/25 04:31:44;;;;;;;6.38;3.08;;;;;;;14.93;57.91;100699.00;6200566;23;20468;-79
2023/03/25 04:34:15;;;;;;;;;;;;;;;15.26;58.50;100773.97;6189637;23;20020;-80
2023/03/25 04:36:41;;;;;;;5.82;3.60;;;;;;;15.30;57.99;100775.31;6194337;23;19916;-85
2023/03/25 04:39:16;;;;;;;3.85;3.42;;;;;;;15.34;57.85;100773.97;6180855;23;20020;-81
2023/03/25 04:41:43;;;;;;;6.97;3.20;;;;;;;15.21;58.24;100763.75;6182623;23;20349;-82
2023/03/25 04:44:24;;;;;;;4.95;3.45;;;;;;;15.27;58.92;100775.66;6159016;23;20130;-82
2023/03/25 04:47:03;;;;;;;3.53;3.00;;;;;;;15.16;58.47;100764.22;6178140;23;20020;-80
2023/03/25 04:49:31;;;;;;;4.18;3.47;;;;;;;15.21;58.63;100776.28;6182505;23;20037;-81
2023/03/25 04:52:00;;;;;;;4.60;2.72;;;;;;;14.81;58.39;100717.19;6188898;23;20051;-81
2023/03/25 04:54:30;;;;;;;6.05;4.32;;;;;;;15.20;58.25;100791.50;6188266;23;20373;-82
2023/03/25 04:57:00;;;;;;;5.60;3.50;;;;;;;15.21;58.19;100792.34;6175545;23;20095;-83
2023/03/25 04:59:28;;;;;;;5.13;3.58;;;;;;;15.12;58.90;100792.31;6177890;23;20392;-82
2023/03/25 05:01:58;;;;;;;6.25;4.22;;;;;;;14.91;58.82;100768.66;6172337;23;20352;-81
2023/03/25 05:04:34;;;;;;;7.53;3.97;;;;;;;14.80;58.51;100768.09;6162403;23;20380;-81
2023/03/25 05:07:03;;;;;;;7.05;4.07;;;;;;;14.94;57.92;100796.91;6151804;23;20361;-80
2023/03/25 05:09:33;;;;;;;5.32;4.68;;;;;;;14.80;58.32;100795.66;6157374;23;20094;-82
2023/03/25 05:12:16;;;;;;;6.75;4.38;;;;;;;14.65;58.46;100792.75;6192105;23;20024;-80
2023/03/25 05:14:43;;;;;;;6.18;4.43;;;;;;;13.95;58.23;100683.28;6165337;23;20022;-81
2023/03/25 05:17:09;;;;;;;7.03;4.45;;;;;;;14.59;58.53;100797.88;6162979;23;20020;-82
2023/03/25 05:19:36;;;;;;;8.43;4.75;;;;;;;14.39;58.83;100775.84;6167389;23;20461;-81
2023/03/25 05:22:03;;;;;;;10.07;4.88;;;;;;;13.78;59.49;100702.84;6169761;23;20340;-82
2023/03/25 05:24:30;;;;;;;8.30;5.10;;;;;;;14.00;60.06;100749.53;6167666;23;20024;-82
2023/03/25 05:27:01;;;;;;;7.55;4.55;;;;;;;14.24;59.97;100811.13;6174221;23;20048;-80
2023/03/25 05:29:32;;;;;;;9.30;4.80;;;;;;;13.69;60.18;100725.97;6194218;23;20025;-80
2023/03/25 05:31:59;;;;;;;10.25;4.70;;;;;;;14.15;60.79;100820.09;6159768;23;20017;-82
2023/03/25 05:34:29;;;;;;;8.07;5.10;;;;;;;13.85;60.91;100779.44;6160886;23;20383;-82
2023/03/25 05:36:56;;;;;;;8.38;5.18;;;;;;;13.74;61.34;100768.16;6160533;23;20020;-81
2023/03/25 05:39:23;;;;;;;8.90;5.00;;;;;;;13.87;61.17;100795.31;6167135;23;20333;-80
2023/03/25 05:41:54;;;;;;;7.57;5.30;;;;;;;14.10;60.85;100835.72;6170037;23;20394;-81
2023/03/25 05:44:25;;;;;;;6.90;5.20;;;;;;;13.92;61.08;100803.69;6156619;23;20365;-81
2023/03/25 05:46:51;;;;;;;6.53;4.95;;;;;;;13.96;61.11;100806.91;6166391;23;20024;-78
2023/03/25 05:49:18;;;;;;;10.88;5.43;;;;;;;14.05;61.64;100822.84;6156252;23;20245;-81
2023/03/25 05:51:52;;;;;;;8.25;4.80;;;;;;;13.80;61.79;100787.06;6146110;23;20512;-83
2023/03/25 05:54:19;;;;;;;7.68;4.75;;;;;;;14.09;61.12;100824.19;6151856;23;20017;-81
2023/03/25 05:56:51;;;;;;;;;;;;;;;14.05;61.79;100827.31;6194010;23;20028;-82
2023/03/25 05:59:19;;;;;;;8.10;5.65;;;;;;;14.01;61.69;100825.97;6162943;23;20451;-83
2023/03/25 06:01:48;;;;;;;9.60;5.90;;;;;;;14.01;61.46;100825.97;6183088;23;20373;-82
2023/03/25 06:04:18;;;;;;;10.90;4.65;;;;;;;13.84;61.36;100804.47;6160484;23;20333;-81
2023/03/25 06:06:50;;;;;;;11.95;6.03;;;;;;;14.05;60.90;100828.19;6158627;23;20024;-83
2023/03/25 06:09:23;;;;;;;7.53;5.20;;;;;;;14.15;61.11;100844.13;6181576;23;20094;-82
2023/03/25 06:11:52;;;;;;;9.50;5.82;;;;;;;14.06;61.18;100823.69;6166111;23;20454;-81
2023/03/25 06:14:24;;;;;;;10.30;5.90;;;;;;;14.18;61.34;100832.28;6155508;23;20087;-82
2023/03/25 06:16:51;;;;;;;9.95;6.00;;;;;;;14.17;60.88;100820.75;6161353;23;20055;-81
2023/03/25 06:19:25;;;;;;;15.88;5.57;;;;;;;14.26;61.94;100829.69;6153255;23;20727;-81
2023/03/25 06:21:56;;;;;;;13.10;6.20;;;;;;;14.27;61.36;100824.19;6132512;23;20106;-81
2023/03/25 06:24:26;;;;;;;11.80;6.90;;;;;;;13.82;61.20;100731.72;6150401;23;20340;-82
2023/03/25 06:27:01;;;;;;;13.50;6.53;;;;;;;14.16;61.31;100775.53;6150474;23;20055;-81
2023/03/25 06:29:37;;;;;;;11.32;6.30;;;;;;;14.27;61.99;100781.47;6091357;23;20025;-82
2023/03/25 06:32:05;;;;;;;12.50;6.72;;;;;;;14.47;62.51;100803.47;6083502;23;20087;-82
2023/03/25 06:34:34;;;;;;;12.77;6.97;;;;;;;14.55;62.07;100796.53;6073888;23;20021;-82
2023/03/25 06:37:01;;;;;;;18.15;7.88;;;;;;;14.42;61.76;100760.38;6140891;23;20103;-82
2023/03/25 06:39:32;;;;;;;15.50;7.22;;;;;;;14.75;61.62;100798.81;6141784;23;20024;-83
2023/03/25 06:42:00;;;;;;;15.93;6.47;;;;;;;14.82;61.47;100790.16;6173831;23;20112;-83
2023/03/25 06:44:32;;;;;;;11.38;5.72;;;;;;;14.91;61.79;100799.91;6176371;23;20531;-81
2023/03/25 06:47:05;;;;;;;15.07;4.90;;;;;;;14.94;60.20;100775.53;6157226;23;20017;-81
2023/03/25 06:49:32;;;;;;;9.00;5.47;;;;;;;14.98;59.95;100766.19;6145929;23;20027;-82
2023/03/25 06:51:58;;;;;;;7.78;4.10;;;;;;;15.27;59.19;100802.41;6159197;23;20357;-81
2023/03/25 06:54:25;;;;;;;8.35;5.18;;;;;;;14.74;59.12;100700.09;6144197;23;20172;-82
2023/03/25 06:56:54;;;;;;;7.88;4.18;;;;;;;15.48;58.61;100805.44;6160549;23;20016;-82
2023/03/25 06:59:21;;;;;;;8.13;4.50;;;;;;;15.54;58.29;100799.44;6146022;23;20117;-82
2023/03/25 07:01:58;;;;;;;7.70;5.05;;;;;;;15.63;57.93;100788.75;6165172;23;20100;-81
2023/03/25 07:04:29;;;;;;;7.63;4.57;;;;;;;15.49;58.00;100758.97;6140857;23;20475;-81
2023/03/25 07:06:56;;;;;;;6.18;4.07;;;;;;;15.87;57.59;100826.28;6133611;23;20290;-81
2023/03/25 07:09:28;;;;;;;6.45;4.85;;;;;;;15.98;56.70;100825.97;6124755;23;20028;-82
2023/03/25 07:11:54;;;;;;;7.63;4.63;;;;;;;15.50;56.73;100733.88;6123165;23;20311;-81
2023/03/25 07:14:22;;;;;;;5.85;4.78;;;;;;;15.92;56.53;100786.50;6123037;23;20017;-82
2023/03/25 07:16:49;;;;;;;9.27;4.03;;;;;;;15.98;56.73;100799.19;6112650;23;20413;-81
2023/03/25 07:19:22;;;;;;;9.07;4.70;;;;;;;16.18;56.31;100822.97;6118609;23;20075;-83
2023/03/25 07:21:49;;;;;;;7.15;4.45;;;;;;;15.97;55.79;100757.38;6127226;23;20029;-82
2023/03/25 07:24:15;;;;;;;6.72;4.32;;;;;;;16.36;55.80;100814.75;6111608;23;20375;-82
2023/03/25 07:26:47;;;;;;;6.40;3.97;;;;;;;15.87;56.01;100739.78;6132546;23;20017;-82
2023/03/25 07:29:27;;;;;;;7.38;4.47;;;;;;;16.31;56.07;100793.84;6122993;23;20342;-80
2023/03/25 07:32:04;;;;;;;5.88;4.57;;;;;;;16.45;56.06;100806.53;6159391;23;20020;-82
2023/03/25 07:34:41;;;;;;;6.20;4.40;;;;;;;16.45;55.88;100808.38;6103105;23;20570;-81
2023/03/25 07:37:10;;;;;;;6.30;4.55;;;;;;;16.25;55.65;100770.41;6104548;23;20025;-80
2023/03/25 07:40:08;;;;;;;9.07;5.13;;;;;;;16.22;55.98;100762.72;6110296;23;20021;-81
2023/03/25 07:42:37;;;;;;;7.15;5.30;;;;;;;16.65;55.36;100815.06;6121353;23;20091;-83
2023/03/25 07:45:05;;;;;;;6.63;5.63;;;;;;;16.25;55.51;100748.97;6129442;23;20032;-82
2023/03/25 07:47:36;;;;;;;9.13;5.35;;;;;;;16.62;55.68;100817.22;6122389;23;20025;-82
2023/03/25 07:50:06;;;;;;;8.18;5.18;;;;;;;16.46;55.80;100799.34;6151845;23;20025;-80
2023/03/25 07:52:35;;;;;;;9.98;4.90;;;;;;;16.64;55.41;100812.53;6136187;23;20406;-81
2023/03/25 07:55:06;;;;;;;10.77;5.40;;;;;;;16.72;55.00;100799.09;6136059;23;20132;-82
2023/03/25 07:57:33;;;;;;;8.95;5.63;;;;;;;16.50;55.49;100791.78;6106153;23;20024;-82
2023/03/25 08:00:00;;;;;;;7.40;5.20;;;;;;;16.65;55.77;100824.91;6133561;23;20021;-80
2023/03/25 08:02:27;;;;;;;7.85;5.35;;;;;;;16.65;56.20;100804.34;6133542;23;20024;-82
2023/03/25 08:04:56;;;;;;;6.55;3.78;;;;;;;16.65;55.94;100798.13;6159219;23;20023;-82
2023/03/25 08:07:32;;;;;;;9.60;3.97;;;;;;;16.51;55.25;100769.38;6183920;23;20397;-82
2023/03/25 08:10:00;;;;;;;7.68;4.38;;;;;;;16.88;55.32;100825.91;6167770;23;20064;-83
2023/03/25 08:12:30;;;;;;;7.65;4.85;;;;;;;16.48;55.54;100758.97;6181179;23;20481;-80
2023/03/25 08:14:56;;;;;;;12.07;5.60;;;;;;;16.96;55.31;100821.53;6154738;23;20185;-81
2023/03/25 08:17:23;;;;;;;10.48;5.10;;;;;;;16.56;55.50;100761.63;6165504;23;20028;-81
2023/03/25 08:19:50;;;;;;;6.60;5.03;;;;;;;16.53;55.77;100754.78;6147419;23;20730;-79
2023/03/25 08:22:24;;;;;;;6.78;4.35;;;;;;;15.79;55.70;100645.09;6143394;23;20277;-80
2023/03/25 08:24:52;;;;;;;8.75;4.65;;;;;;;16.50;55.68;100751.59;6141239;23;20319;-79
2023/03/25 08:27:21;;;;;;;10.15;4.95;;;;;;;16.95;55.66;100811.81;6182864;23;20059;-79
2023/03/25 08:29:58;;;;;;;5.63;4.95;;;;;;;17.07;55.67;100824.66;6155501;23;20068;-82
2023/03/25 08:32:26;;;;;;;6.00;4.78;;;;;;;16.98;55.80;100819.50;6181657;23;20020;-80
2023/03/25 08:34:53;;;;;;;11.90;5.15;;;;;;;16.95;55.49;100809.97;6190141;23;20059;-80
2023/03/25 08:37:22;;;;;;;7.97;5.20;;;;;;;15.94;55.98;100641.72;6150019;23;20058;-80
2023/03/25 08:39:49;;;;;;;7.05;4.82;;;;;;;17.15;56.06;100821.13;6147147;23;20416;-81
2023/03/25 08:42:18;;;;;;;6.50;5.85;;;;;;;17.09;56.12;100805.72;6157774;23;20051;-80
2023/03/25 08:44:48;;;;;;;12.13;5.68;;;;;;;16.97;56.45;100780.31;6166785;23;20021;-81
2023/03/25 08:47:15;;;;;;;9.30;5.43;;;;;;;17.36;56.21;100830.44;6163138;23;20027;-80
2023/03/25 08:49:42;;;;;;;7.78;4.68;;;;;;;17.29;55.76;100815.03;6164582;23;20218;-79
2023/03/25 08:52:09;;;;;;;8.32;5.30;;;;;;;17.10;55.13;100753.75;6153936;23;20028;-79
2023/03/25 08:54:36;;;;;;;7.90;5.47;;;;;;;17.40;55.43;100808.41;6155033;23;20017;-80
2023/03/25 08:57:08;;;;;;;7.00;5.30;;;;;;;17.58;55.29;100818.06;6155400;23;20183;-79
2023/03/25 08:59:41;;;;;;;6.80;4.88;;;;;;;17.76;54.87;100820.47;6147505;23;20028;-80
2023/03/25 09:02:11;;;;;;;11.05;6.10;;;;;;;17.46;55.04;100780.88;6161618;23;20365;-80
2023/03/25 09:04:41;;;;;;;10.25;4.63;;;;;;;17.50;54.25;100766.09;6146556;23;20021;-81
2023/03/25 09:07:11;;;;;;;5.90;4.10;;;;;;;17.52;54.71;100764.09;6179651;23;20260;-80
2023/03/25 09:09:44;;;;;;;8.73;4.45;;;;;;;18.02;53.84;100812.91;6159039;23;20020;-79
2023/03/25 09:12:14;;;;;;;10.18;4.57;;;;;;;17.76;54.00;100753.34;6189087;23;20062;-80
2023/03/25 09:14:48;;;;;;;14.40;4.18;;;;;;;18.09;53.67;100813.88;6164743;23;20021;-80
2023/03/25 09:17:18;;;;;;;8.75;4.90;;;;;;;18.11;53.88;100795.72;6143978;23;20391;-80
2023/03/25 09:19:48;;;;;;;6.70;3.95;;;;;;;18.39;52.75;100813.94;6165163;23;20460;-81
2023/03/25 09:22:19;;;;;;;9.90;4.85;;;;;;;18.51;52.39;100825.91;6157766;23;20394;-80
2023/03/25 09:24:46;;;;;;;7.60;3.80;;;;;;;18.21;52.06;100746.28;6192534;23;20298;-79
2023/03/25 09:27:13;;;;;;;7.45;4.55;;;;;;;18.66;52.26;100831.31;6192369;23;20302;-81
2023/03/25 09:29:42;;;;;;;5.55;4.03;;;;;;;18.56;51.99;100785.88;6156003;23;20029;-80
2023/03/25 09:32:13;;;;;;;6.70;4.80;;;;;;;19.12;50.84;100825.78;6158181;23;20024;-81
2023/03/25 09:34:40;;;;;;;6.43;3.97;;;;;;;19.26;50.21;100813.34;6152162;23;20021;-79
2023/03/25 09:37:07;;;;;;;5.93;5.00;;;;;;;19.52;50.37;100830.84;6140621;23;20369;-79
2023/03/25 09:39:39;;;;;;;12.85;4.75;;;;;;;19.35;50.90;100814.06;6136539;23;20028;-80
2023/03/25 09:42:36;;;;;;;12.95;5.10;;;;;;;19.55;51.13;100830.44;6148383;23;20491;-81
2023/03/25 09:45:30;;;;;;;10.00;4.88;;;;;;;19.55;51.06;100831.28;6180599;23;20031;-81
2023/03/25 09:48:12;;;;;;;8.52;4.57;;;;;;;19.53;50.98;100790.25;6146831;23;20016;-81
2023/03/25 09:50:47;;;;;;;6.88;3.65;;;;;;;19.89;48.70;100815.50;6161405;23;20017;-79
2023/03/25 09:53:31;;;;;;;10.45;4.97;;;;;;;20.02;48.91;100826.41;6152337;23;20318;-80
2023/03/25 09:56:03;;;;;;;6.45;4.82;;;;;;;19.81;49.32;100784.97;6165462;23;20228;-80
2023/03/25 09:58:40;;;;;;;11.35;5.05;;;;;;;20.11;49.23;100821.72;6153945;23;20380;-80
2023/03/25 10:01:45;;;;;;;11.30;4.00;;;;;;;20.23;47.11;100820.16;6157210;23;20090;-82
2023/03/25 10:04:12;;;;;;;9.50;4.05;;;;;;;20.40;46.33;100826.94;6144694;23;20028;-82
2023/03/25 10:07:10;;;;;;;10.27;3.45;;;;;;;20.50;45.55;100815.81;6149563;23;20024;-82
2023/03/25 10:10:05;;;;;;;7.45;3.78;;;;;;;20.61;45.69;100815.31;6157922;23;20021;-82
2023/03/25 10:13:01;;;;;;;9.18;3.67;;;;;;;20.87;44.01;100816.50;6182065;23;20361;-83
2023/03/25 10:16:12;;;;;;;3.45;2.80;;;;;;;20.95;41.97;100783.09;6158780;23;20061;-81
2023/03/25 10:19:31;;;;;;;6.63;2.88;;;;;;;21.35;41.36;100821.91;6161461;23;20021;-81
2023/03/25 10:22:17;;;;;;;8.40;3.42;;;;;;;21.44;37.49;100792.91;6148019;23;20017;-82
2023/03/25 10:24:55;;;;;;;6.50;2.70;;;;;;;21.74;38.71;100817.69;6164567;23;20360;-82
2023/03/25 10:27:40;;;;;;;4.63;3.00;;;;;;;21.85;37.99;100817.09;6157331;23;20288;-81
2023/03/25 10:30:25;;;;;;;2.92;2.55;;;;;;;21.90;36.21;100786.75;6150345;23;20184;-84
2023/03/25 10:32:59;;;;;;;6.97;2.80;;;;;;;22.01;36.14;100790.72;6151239;23;20412;-80
2023/03/25 10:35:46;;;;;;;2.97;2.42;;;;;;;21.96;33.80;100738.09;6144353;23;20020;-84
2023/03/25 10:38:22;;;;;;;6.45;2.35;;;;;;;22.56;31.61;100818.41;6149250;23;20362;-83
2023/03/25 10:41:18;;;;;;;7.32;2.33;;;;;;;22.35;32.25;100774.28;6173555;23;20465;-83
2023/03/25 10:43:47;;;;;;;6.75;2.20;;;;;;;22.71;31.52;100807.34;6155521;23;20096;-81
2023/03/25 10:46:36;;;;;;;2.15;1.95;;;;;;;22.78;31.12;100816.28;6181997;23;20271;-81
2023/03/25 10:49:29;;;;;;;3.92;2.53;;;;;;;22.82;31.95;100801.28;6149513;23;20275;-82
2023/03/25 10:51:58;;;;;;;5.82;2.20;;;;;;;22.76;32.60;100775.88;6147094;23;20213;-81
2023/03/25 10:54:35;;;;;;;12.25;2.17;;;;;;;22.99;31.66;100796.25;6155754;23;20024;-83
2023/03/25 10:57:05;;;;;;;3.08;1.77;;;;;;;22.82;31.03;100726.31;6161148;23;20028;-82
2023/03/25 11:00:18;;;;;;;3.75;1.65;;;;;;;23.46;29.07;100807.72;6161286;23;20207;-81
2023/03/25 11:02:51;;;;;;;5.60;1.80;;;;;;;23.03;28.96;100706.28;6149531;23;20396;-81
2023/03/25 11:05:23;;;;;;;3.25;1.30;;;;;;;23.60;26.53;100776.78;6158682;23;20025;-82
2023/03/25 11:07:54;;;;;;;2.15;1.58;;;;;;;23.82;26.76;100788.13;6171898;23;20028;-81
2023/03/25 11:10:27;;;;;;;7.45;2.05;;;;;;;23.13;27.56;100657.06;6160338;23;20090;-82
2023/03/25 11:13:02;;;;;;;3.05;2.03;;;;;;;24.01;28.54;100788.22;6164932;23;20182;-83
2023/03/25 11:15:43;;;;;;;3.15;1.58;;;;;;;24.24;28.32;100787.59;6189096;23;20027;-82
2023/03/25 11:18:23;;;;;;;4.72;1.75;;;;;;;24.33;28.08;100785.44;6197684;23;20057;-82
2023/03/25 11:20:56;;;;;;;3.38;1.98;;;;;;;24.48;27.58;100780.53;6166757;23;20051;-83
2023/03/25 11:23:29;;;;;;;6.05;1.98;;;;;;;24.41;27.59;100764.25;6152901;23;20020;-83
2023/03/25 11:26:19;;;;;;;5.13;2.13;;;;;;;23.43;26.97;100591.44;6192198;23;20326;-83
2023/03/25 11:28:48;;;;;;;4.50;1.95;;;;;;;24.07;27.01;100689.69;6155489;23;20031;-83
2023/03/25 11:31:24;;;;;;;12.75;2.17;;;;;;;23.66;26.40;100586.19;6153661;23;20768;-84
2023/03/25 11:34:29;;;;;;;3.95;1.88;;;;;;;25.01;26.26;100784.53;6163278;23;20348;-83
2023/03/25 11:37:15;;;;;;;4.85;2.20;;;;;;;25.15;26.69;100773.28;6036886;23;20348;-83
2023/03/25 11:40:03;;;;;;;4.35;1.70;;;;;;;25.24;27.30;100775.69;6162558;23;20042;-84
2023/03/25 11:42:49;;;;;;;5.75;2.17;;;;;;;24.56;27.99;100668.13;6184548;23;20488;-83
2023/03/25 11:45:58;;;;;;;2.55;1.77;;;;;;;24.64;27.86;100667.84;6168213;23;20013;-83
2023/03/25 11:48:35;;;;;;;3.72;2.10;;;;;;;24.36;28.01;100608.66;6186004;23;20577;-83
2023/03/25 11:51:11;;;;;;;4.75;2.30;;;;;;;24.95;28.48;100675.78;6165056;23;20603;-83
2023/03/25 11:53:48;;;;;;;3.40;1.83;;;;;;;24.45;28.10;100564.69;6167598;23;20020;-84
2023/03/25 11:56:22;;;;;;;2.88;2.25;;;;;;;24.69;28.94;100562.13;6184819;23;20797;-83
2023/03/25 11:58:50;;;;;;;5.68;2.60;;;;;;;24.93;28.67;100573.88;6185702;23;20021;-84
2023/03/25 12:01:27;;;;;;;5.57;2.63;;;;;;;25.29;28.71;100608.25;6167284;23;20024;-84